Member area
Imprimable
Antwerpen, 14/10/2018, BEL - Linker Oevert Marathon 2018
List of reports > Half Marathon - Result
Search: Page: [1]
37 Entries
 
Complains are not accepted anymore. Results are final.
PlaceNrNameAgeNATTeamTimeTkmMoy.ScrCity
1.21462FDE KEERSMAEKER Sophie39BEL1:39:254:43 12.7343
2.21243FRENEMA Louise36NLD1:46:265:03 11.8990ANTWERPEN
3.21143FGEETS Lisa35BEL1:48:005:08 11.72100BORGERHOUT
4.21154FGRAFF Elke37BEL1:54:155:25 11.08157SCHELLE
5.21410FPLOMPEN Inge37BEL1:55:075:28 11.00166ANTWERPEN
6.21233FPIETERS Karen36BEL1:55:105:28 10.99168ANTWERPEN
7.21203FMARIEN Annemarie36BEL1:57:455:35 10.75187KESSEL
8.21121FDE WOLF Sofie39BEL1:57:575:36 10.73189ANTWERPEN
9.21273FSWAEGERS Ann36BEL2:00:055:42 10.54209ANTWERPEN
10.21009FPEETERS Tinka35BEL2:01:375:46 10.41220
11.21303FVAN DYCK Kelly38BEL2:02:025:48 10.37225RUMST
12.21146FGEYS Lori37BEL2:02:435:50 10.31231HOVE
13.21329FVERSMISSEN Leen37BEL2:03:225:51 10.26237BERCHEM
14.21517FHUYGERBERGHS Valerie36BEL2:05:325:58 10.08254
15.21412FPEYSMANS-DE RICK Katrien35BEL2:06:115:59 10.03263GERAARDSBERGEN
16.21301FVAN DIEVOET Marian36BEL2:06:336:00 10.00266KORBEEK-LO
17.21400FVH Lisa37BEL2:07:436:04 9.91280STEENDORP
18.21402FCALLANT Tineke38BEL2:08:026:05 9.89283
19.21223FOELBRANDT Stella38BEL2:12:216:17 9.56320ZWIJNDRECHT
20.21405FVAN DEN KIEBOOM Saskia38NLD2:13:116:19 9.50329ANTWERPEN
21.21536FSCHOOVAERTS Sylvie37BEL2:19:096:36 9.10381SINT-KATELIJNE-WAVER
22.21004FDE LAT Katrien37BEL2:23:036:47 8.85400
23.21012FVAN ROMPAEY Roxanne35BEL2:23:046:47 8.85401
24.21010FPOELMANS Esther37BEL2:23:056:47 8.85402
25.21327FVERMEIREN Evelyne38BEL2:23:166:48 8.84404HOEVENEN
26.21496FGORE Camilla35GBR2:24:046:50 8.79413NEDER-OVER-HEEMBEEK
27.21372FDAUSY Kristin35BEL2:24:326:52 8.76417MECHELEN
28.21173FJANSEN Elke38BEL2:25:106:53 8.72422LOKEREN
29.21295FVAN DEN EYNDE Sabine37BEL2:28:537:04 8.50438WILRIJK
30.21105FDE MEYER Kelly35BEL2:29:527:07 8.45441WIJNEGEM
31.21428FLAKHANISKY Vanessa37BEL2:35:277:23 8.14459ANTWERPEN
32.21396FBEYERS Romy39BEL2:36:017:24 8.11461
33.21336FWAEGEMAN Vanessa36BEL2:44:117:47 7.71476RUMST
34.21191FLAANEN Manon36BEL2:44:437:49 7.68477DUFFEL
35.21182FKELLY De Neef36BEL2:45:147:50 7.66478MOERZEKE
36.21073FCEULEMANS Helen38BEL2:45:147:50 7.66479ANTWERPEN
DNF21185FKIEKENS Kelly36BELSINT-KATELIJNE-WAVER
DNF: did not finish; DSQ: disqualified; Speed in km/h
Page: [1]